19:34
Airports
History
Links
Donate
Help keep this website running!
PayPal
Bitcoin
Information on this page is community maintained and may be outdated or inaccurate and is intended for reference only or PC simulator navigating.
Always use approved charts for navigating.
LILO
Sondrio Caiolo
Sondrio Caiolo (LILO)
Colorina, Lombardia, Italy (23010)
(U)
Lat/Lng:46° 9' 0.01" N / 9° 43' 0" E
46.150002 / 9.716667
Elevation:901'ft 275mMSL
ID / ICAO:LILO
Runways:1
Longest:(09-27) 804.7m 2,640ft Asphalt
Distance To
Airport ID:
Nearby VORs <50NM
Nearby NDBs
Nearby WeatherUpdated 05-27-17 19:20 GMT
Nearby weather at LIME, Bergamo Orio Al Serio located 33.1 nautical miles from LILO
Altimeter: 30.09
Visibility: 6.2 statute miles
Wind: 3 knots (100°)
Temp: 22°c 72°f
Humidity: 53.0%

METAR: LIME 271920Z 10003KT 050V130 CAVOK 22/12 Q1019 NOSIG

(Powered by phpweather)
Runway 09 / 27
Dimensions:804.7 x 22.9m 2640' x 75'ft
Surface:Asphalt
Runway 09 [A]Runway 27 [B]
Heading:090°TH 270°TH
Lat:
Lng:
46° 9' 0.01"N
9° 42' 41.3"E
46° 9' 0.01"N
9° 43' 18.7"E
User Notes and Comments
Google Map
Nearby Airports
(C) Samedan 27.7 NM
LSZS NNE 16°
4 Valbrembo 30.3 NM
LILV S 191°
(C) Bergamo Orio Al Serio 33.1 NM
LIME (WX) S 180°
(C) Lodrino 36.1 NM
LSML WNW 286°
(U) Alzate Brianza 37.5 NM
LILB SW 225°
(C) Lugano 39.9 NM
LSZA (WX) WSW 255°
(C) Locarno 40.1 NM
LSZL W 271°
VFR Chart
Flight Planning at SkyVector.com